sensor_id;sensor_type;location;lat;lon;timestamp;temperature;humidity
12907;DHT22;6521;50.498;8.474;2023-08-12T00:00:32;19.67;77.90
12907;DHT22;6521;50.498;8.474;2023-08-12T00:03:03;19.69;77.92
12907;DHT22;6521;50.498;8.474;2023-08-12T00:05:33;19.69;78.01
12907;DHT22;6521;50.498;8.474;2023-08-12T00:08:06;19.73;78.11
12907;DHT22;6521;50.498;8.474;2023-08-12T00:10:36;19.71;77.89
12907;DHT22;6521;50.498;8.474;2023-08-12T00:13:07;19.73;77.97
12907;DHT22;6521;50.498;8.474;2023-08-12T00:15:37;19.73;78.04
12907;DHT22;6521;50.498;8.474;2023-08-12T00:18:09;19.74;78.07
12907;DHT22;6521;50.498;8.474;2023-08-12T00:20:39;19.73;78.10
12907;DHT22;6521;50.498;8.474;2023-08-12T00:23:10;19.74;78.22
12907;DHT22;6521;50.498;8.474;2023-08-12T00:25:41;19.74;78.12
12907;DHT22;6521;50.498;8.474;2023-08-12T00:28:12;19.73;78.09
12907;DHT22;6521;50.498;8.474;2023-08-12T00:30:43;19.74;78.26
12907;DHT22;6521;50.498;8.474;2023-08-12T00:33:14;19.71;78.42
12907;DHT22;6521;50.498;8.474;2023-08-12T00:35:45;19.71;78.62
12907;DHT22;6521;50.498;8.474;2023-08-12T00:38:15;19.73;78.79
12907;DHT22;6521;50.498;8.474;2023-08-12T00:40:46;19.74;78.63
12907;DHT22;6521;50.498;8.474;2023-08-12T00:43:17;19.74;78.68
12907;DHT22;6521;50.498;8.474;2023-08-12T00:45:48;19.77;78.51
12907;DHT22;6521;50.498;8.474;2023-08-12T00:48:19;19.79;78.42
12907;DHT22;6521;50.498;8.474;2023-08-12T00:50:50;19.80;78.42
12907;DHT22;6521;50.498;8.474;2023-08-12T00:53:20;19.77;78.42
12907;DHT22;6521;50.498;8.474;2023-08-12T00:55:51;19.76;78.43
12907;DHT22;6521;50.498;8.474;2023-08-12T00:58:22;19.76;78.41
12907;DHT22;6521;50.498;8.474;2023-08-12T01:00:53;19.76;78.27
12907;DHT22;6521;50.498;8.474;2023-08-12T01:03:24;19.74;78.24
12907;DHT22;6521;50.498;8.474;2023-08-12T01:05:56;19.74;78.31
12907;DHT22;6521;50.498;8.474;2023-08-12T01:08:30;19.74;78.19
12907;DHT22;6521;50.498;8.474;2023-08-12T01:16:29;19.63;78.40
12907;DHT22;6521;50.498;8.474;2023-08-12T01:19:05;19.55;78.97
12907;DHT22;6521;50.498;8.474;2023-08-12T01:21:41;19.42;79.51
12907;DHT22;6521;50.498;8.474;2023-08-12T01:24:13;19.30;79.94
12907;DHT22;6521;50.498;8.474;2023-08-12T01:26:44;19.25;80.20
12907;DHT22;6521;50.498;8.474;2023-08-12T01:29:16;19.23;80.67
12907;DHT22;6521;50.498;8.474;2023-08-12T01:32:03;19.21;80.72
12907;DHT22;6521;50.498;8.474;2023-08-12T01:34:39;19.16;81.09
12907;DHT22;6521;50.498;8.474;2023-08-12T01:37:17;19.19;81.20
12907;DHT22;6521;50.498;8.474;2023-08-12T01:39:49;19.15;81.44
12907;DHT22;6521;50.498;8.474;2023-08-12T01:42:21;19.16;81.49
12907;DHT22;6521;50.498;8.474;2023-08-12T01:44:53;19.08;81.78
12907;DHT22;6521;50.498;8.474;2023-08-12T01:47:24;19.05;81.91
12907;DHT22;6521;50.498;8.474;2023-08-12T01:49:57;19.04;81.96
12907;DHT22;6521;50.498;8.474;2023-08-12T01:52:28;19.07;82.03
12907;DHT22;6521;50.498;8.474;2023-08-12T01:54:59;19.12;82.13
12907;DHT22;6521;50.498;8.474;2023-08-12T01:57:30;19.14;82.02
12907;DHT22;6521;50.498;8.474;2023-08-12T02:00:04;19.16;82.05
12907;DHT22;6521;50.498;8.474;2023-08-12T02:02:47;19.16;82.06
12907;DHT22;6521;50.498;8.474;2023-08-12T02:05:18;19.16;81.96
12907;DHT22;6521;50.498;8.474;2023-08-12T02:07:49;19.22;81.87
12907;DHT22;6521;50.498;8.474;2023-08-12T02:10:22;19.15;82.12
12907;DHT22;6521;50.498;8.474;2023-08-12T02:12:54;19.08;82.66
12907;DHT22;6521;50.498;8.474;2023-08-12T02:15:24;19.09;83.02
12907;DHT22;6521;50.498;8.474;2023-08-12T02:17:55;19.08;83.39
12907;DHT22;6521;50.498;8.474;2023-08-12T02:20:26;19.05;83.78
12907;DHT22;6521;50.498;8.474;2023-08-12T02:22:57;19.04;84.00
12907;DHT22;6521;50.498;8.474;2023-08-12T02:25:27;19.04;84.10
12907;DHT22;6521;50.498;8.474;2023-08-12T02:27:58;19.01;84.18
12907;DHT22;6521;50.498;8.474;2023-08-12T02:30:29;19.02;84.24
12907;DHT22;6521;50.498;8.474;2023-08-12T02:33:01;19.02;84.44
12907;DHT22;6521;50.498;8.474;2023-08-12T02:35:33;19.00;84.37
12907;DHT22;6521;50.498;8.474;2023-08-12T02:38:04;18.98;84.57
12907;DHT22;6521;50.498;8.474;2023-08-12T02:40:34;18.94;84.76
12907;DHT22;6521;50.498;8.474;2023-08-12T02:43:05;18.95;85.01
12907;DHT22;6521;50.498;8.474;2023-08-12T02:45:36;18.95;85.33
12907;DHT22;6521;50.498;8.474;2023-08-12T02:48:06;18.92;85.47
12907;DHT22;6521;50.498;8.474;2023-08-12T02:50:38;18.90;85.79
12907;DHT22;6521;50.498;8.474;2023-08-12T02:53:09;18.85;86.01
12907;DHT22;6521;50.498;8.474;2023-08-12T02:55:39;18.81;86.25
12907;DHT22;6521;50.498;8.474;2023-08-12T02:58:10;18.78;86.29
12907;DHT22;6521;50.498;8.474;2023-08-12T03:00:41;18.74;86.39
12907;DHT22;6521;50.498;8.474;2023-08-12T03:03:14;18.71;86.53
12907;DHT22;6521;50.498;8.474;2023-08-12T03:05:48;18.63;86.69
12907;DHT22;6521;50.498;8.474;2023-08-12T03:08:19;18.56;86.80
12907;DHT22;6521;50.498;8.474;2023-08-12T03:11:01;18.54;87.07
12907;DHT22;6521;50.498;8.474;2023-08-12T03:13:33;18.50;87.46
12907;DHT22;6521;50.498;8.474;2023-08-12T03:16:04;18.44;87.66
12907;DHT22;6521;50.498;8.474;2023-08-12T03:18:36;18.40;88.04
12907;DHT22;6521;50.498;8.474;2023-08-12T03:21:08;18.36;88.23
12907;DHT22;6521;50.498;8.474;2023-08-12T03:23:39;18.33;88.57
12907;DHT22;6521;50.498;8.474;2023-08-12T03:26:13;18.25;88.86
12907;DHT22;6521;50.498;8.474;2023-08-12T03:28:45;18.22;89.26
12907;DHT22;6521;50.498;8.474;2023-08-12T03:31:20;18.19;89.58
12907;DHT22;6521;50.498;8.474;2023-08-12T03:33:51;18.19;89.59
12907;DHT22;6521;50.498;8.474;2023-08-12T03:36:23;18.22;89.76
12907;DHT22;6521;50.498;8.474;2023-08-12T03:38:54;18.23;89.88
12907;DHT22;6521;50.498;8.474;2023-08-12T03:41:29;18.26;90.03
12907;DHT22;6521;50.498;8.474;2023-08-12T03:44:04;18.25;90.08
12907;DHT22;6521;50.498;8.474;2023-08-12T03:46:36;18.28;90.02
12907;DHT22;6521;50.498;8.474;2023-08-12T03:49:07;18.32;90.01
12907;DHT22;6521;50.498;8.474;2023-08-12T03:51:41;18.32;90.11
12907;DHT22;6521;50.498;8.474;2023-08-12T03:54:12;18.34;90.15
12907;DHT22;6521;50.498;8.474;2023-08-12T03:56:44;18.36;90.20
12907;DHT22;6521;50.498;8.474;2023-08-12T03:59:16;18.33;90.26
12907;DHT22;6521;50.498;8.474;2023-08-12T04:01:47;18.39;90.55
12907;DHT22;6521;50.498;8.474;2023-08-12T04:04:17;18.43;90.55
12907;DHT22;6521;50.498;8.474;2023-08-12T04:06:48;18.47;90.52
12907;DHT22;6521;50.498;8.474;2023-08-12T04:09:22;18.44;90.62
12907;DHT22;6521;50.498;8.474;2023-08-12T04:11:52;18.44;90.75
12907;DHT22;6521;50.498;8.474;2023-08-12T04:14:27;18.42;90.97
12907;DHT22;6521;50.498;8.474;2023-08-12T04:16:57;18.43;91.32
12907;DHT22;6521;50.498;8.474;2023-08-12T04:19:28;18.47;91.53
12907;DHT22;6521;50.498;8.474;2023-08-12T04:22:00;18.46;91.60
12907;DHT22;6521;50.498;8.474;2023-08-12T04:24:31;18.51;91.60
12907;DHT22;6521;50.498;8.474;2023-08-12T04:27:02;18.53;91.54
12907;DHT22;6521;50.498;8.474;2023-08-12T04:29:34;18.57;91.51
12907;DHT22;6521;50.498;8.474;2023-08-12T04:32:06;18.61;91.72
12907;DHT22;6521;50.498;8.474;2023-08-12T04:34:38;18.65;91.57
12907;DHT22;6521;50.498;8.474;2023-08-12T04:37:09;18.70;91.51
12907;DHT22;6521;50.498;8.474;2023-08-12T04:39:40;18.74;91.47
12907;DHT22;6521;50.498;8.474;2023-08-12T04:42:12;18.75;91.39
12907;DHT22;6521;50.498;8.474;2023-08-12T04:44:44;18.80;91.34
12907;DHT22;6521;50.498;8.474;2023-08-12T04:47:17;18.80;91.35
12907;DHT22;6521;50.498;8.474;2023-08-12T04:49:51;18.83;91.32
12907;DHT22;6521;50.498;8.474;2023-08-12T04:52:23;18.83;91.26
12907;DHT22;6521;50.498;8.474;2023-08-12T04:54:55;18.84;91.20
12907;DHT22;6521;50.498;8.474;2023-08-12T04:57:28;18.81;91.24
12907;DHT22;6521;50.498;8.474;2023-08-12T04:59:59;18.84;91.29
12907;DHT22;6521;50.498;8.474;2023-08-12T05:02:34;18.87;91.21
12907;DHT22;6521;50.498;8.474;2023-08-12T05:05:05;18.85;91.22
12907;DHT22;6521;50.498;8.474;2023-08-12T05:07:38;18.90;91.22
12907;DHT22;6521;50.498;8.474;2023-08-12T05:10:09;18.91;91.19
12907;DHT22;6521;50.498;8.474;2023-08-12T05:12:39;18.92;91.14
12907;DHT22;6521;50.498;8.474;2023-08-12T05:15:11;18.95;91.20
12907;DHT22;6521;50.498;8.474;2023-08-12T05:17:42;18.94;91.18
12907;DHT22;6521;50.498;8.474;2023-08-12T05:20:16;19.00;91.24
12907;DHT22;6521;50.498;8.474;2023-08-12T05:22:47;19.02;91.24
12907;DHT22;6521;50.498;8.474;2023-08-12T05:25:18;19.02;91.19
12907;DHT22;6521;50.498;8.474;2023-08-12T05:27:50;19.04;91.13
12907;DHT22;6521;50.498;8.474;2023-08-12T05:30:20;19.11;91.11
12907;DHT22;6521;50.498;8.474;2023-08-12T05:32:51;19.11;91.04
12907;DHT22;6521;50.498;8.474;2023-08-12T05:35:22;19.15;91.03
12907;DHT22;6521;50.498;8.474;2023-08-12T05:37:53;19.16;91.00
12907;DHT22;6521;50.498;8.474;2023-08-12T05:40:23;19.18;90.97
12907;DHT22;6521;50.498;8.474;2023-08-12T05:42:54;19.19;90.89
12907;DHT22;6521;50.498;8.474;2023-08-12T05:45:25;19.22;90.80
12907;DHT22;6521;50.498;8.474;2023-08-12T05:47:56;19.21;90.80
12907;DHT22;6521;50.498;8.474;2023-08-12T05:50:31;19.21;90.73
12907;DHT22;6521;50.498;8.474;2023-08-12T05:53:02;19.21;90.74
12907;DHT22;6521;50.498;8.474;2023-08-12T05:55:33;19.25;90.80
12907;DHT22;6521;50.498;8.474;2023-08-12T05:58:08;19.29;90.87
12907;DHT22;6521;50.498;8.474;2023-08-12T06:00:39;19.40;90.88
12907;DHT22;6521;50.498;8.474;2023-08-12T06:03:09;19.43;90.72
12907;DHT22;6521;50.498;8.474;2023-08-12T06:05:40;19.46;90.54
12907;DHT22;6521;50.498;8.474;2023-08-12T06:08:12;19.45;90.51
12907;DHT22;6521;50.498;8.474;2023-08-12T06:10:43;19.48;90.63
12907;DHT22;6521;50.498;8.474;2023-08-12T06:13:14;19.48;90.49
12907;DHT22;6521;50.498;8.474;2023-08-12T06:15:44;19.52;90.49
12907;DHT22;6521;50.498;8.474;2023-08-12T06:18:16;19.55;90.48
12907;DHT22;6521;50.498;8.474;2023-08-12T06:20:46;19.58;90.48
12907;DHT22;6521;50.498;8.474;2023-08-12T06:23:17;19.63;90.34
12907;DHT22;6521;50.498;8.474;2023-08-12T06:25:48;19.70;90.49
12907;DHT22;6521;50.498;8.474;2023-08-12T06:28:19;19.77;90.47
12907;DHT22;6521;50.498;8.474;2023-08-12T06:30:50;19.83;90.31
12907;DHT22;6521;50.498;8.474;2023-08-12T06:33:24;19.91;90.21
12907;DHT22;6521;50.498;8.474;2023-08-12T06:35:54;19.98;90.21
12907;DHT22;6521;50.498;8.474;2023-08-12T06:38:25;20.08;90.37
12907;DHT22;6521;50.498;8.474;2023-08-12T06:40:56;20.28;90.48
12907;DHT22;6521;50.498;8.474;2023-08-12T06:43:26;20.41;89.69
12907;DHT22;6521;50.498;8.474;2023-08-12T06:45:57;20.39;89.03
12907;DHT22;6521;50.498;8.474;2023-08-12T06:48:28;20.45;88.98
12907;DHT22;6521;50.498;8.474;2023-08-12T06:50:59;20.49;88.94
12907;DHT22;6521;50.498;8.474;2023-08-12T06:53:38;20.53;88.70
12907;DHT22;6521;50.498;8.474;2023-08-12T06:56:09;20.53;88.61
12907;DHT22;6521;50.498;8.474;2023-08-12T06:58:42;20.45;88.37
12907;DHT22;6521;50.498;8.474;2023-08-12T07:01:12;20.38;88.35
12907;DHT22;6521;50.498;8.474;2023-08-12T07:03:43;20.34;88.69
12907;DHT22;6521;50.498;8.474;2023-08-12T07:06:15;20.38;88.98
12907;DHT22;6521;50.498;8.474;2023-08-12T07:08:46;20.48;89.02
12907;DHT22;6521;50.498;8.474;2023-08-12T07:11:16;20.61;89.41
12907;DHT22;6521;50.498;8.474;2023-08-12T07:13:48;20.85;89.45
12907;DHT22;6521;50.498;8.474;2023-08-12T07:16:19;21.03;89.15
12907;DHT22;6521;50.498;8.474;2023-08-12T07:18:53;21.20;88.48
12907;DHT22;6521;50.498;8.474;2023-08-12T07:21:24;21.27;88.60
12907;DHT22;6521;50.498;8.474;2023-08-12T07:23:57;21.35;88.42
12907;DHT22;6521;50.498;8.474;2023-08-12T07:26:28;21.37;88.10
12907;DHT22;6521;50.498;8.474;2023-08-12T07:28:59;21.47;88.21
12907;DHT22;6521;50.498;8.474;2023-08-12T07:31:32;21.59;88.20
12907;DHT22;6521;50.498;8.474;2023-08-12T07:34:02;21.72;87.49
12907;DHT22;6521;50.498;8.474;2023-08-12T07:36:33;21.78;86.98
12907;DHT22;6521;50.498;8.474;2023-08-12T07:39:04;21.74;87.09
12907;DHT22;6521;50.498;8.474;2023-08-12T07:41:35;21.72;86.61
12907;DHT22;6521;50.498;8.474;2023-08-12T07:44:05;21.74;86.94
12907;DHT22;6521;50.498;8.474;2023-08-12T07:46:38;21.86;87.40
12907;DHT22;6521;50.498;8.474;2023-08-12T07:49:09;21.93;87.15
12907;DHT22;6521;50.498;8.474;2023-08-12T07:51:40;22.06;86.48
12907;DHT22;6521;50.498;8.474;2023-08-12T07:54:11;22.09;86.20
12907;DHT22;6521;50.498;8.474;2023-08-12T07:56:42;21.92;85.44
12907;DHT22;6521;50.498;8.474;2023-08-12T07:59:14;21.82;85.24
12907;DHT22;6521;50.498;8.474;2023-08-12T08:01:46;21.74;85.99
12907;DHT22;6521;50.498;8.474;2023-08-12T08:04:17;21.72;86.24
12907;DHT22;6521;50.498;8.474;2023-08-12T08:06:48;21.64;86.08
12907;DHT22;6521;50.498;8.474;2023-08-12T08:09:18;21.62;86.29
12907;DHT22;6521;50.498;8.474;2023-08-12T08:11:49;21.54;86.67
12907;DHT22;6521;50.498;8.474;2023-08-12T08:14:21;21.47;86.66
12907;DHT22;6521;50.498;8.474;2023-08-12T08:16:52;21.41;87.00
12907;DHT22;6521;50.498;8.474;2023-08-12T08:19:22;21.35;87.42
12907;DHT22;6521;50.498;8.474;2023-08-12T08:21:53;21.33;87.33
12907;DHT22;6521;50.498;8.474;2023-08-12T08:24:24;21.30;87.61
12907;DHT22;6521;50.498;8.474;2023-08-12T08:26:55;21.33;88.21
12907;DHT22;6521;50.498;8.474;2023-08-12T08:29:25;21.35;88.52
12907;DHT22;6521;50.498;8.474;2023-08-12T08:31:56;21.41;88.71
12907;DHT22;6521;50.498;8.474;2023-08-12T08:34:27;21.43;88.39
12907;DHT22;6521;50.498;8.474;2023-08-12T08:36:57;21.53;88.37
12907;DHT22;6521;50.498;8.474;2023-08-12T08:39:28;21.61;88.34
12907;DHT22;6521;50.498;8.474;2023-08-12T08:41:59;21.81;88.75
12907;DHT22;6521;50.498;8.474;2023-08-12T08:44:31;21.89;87.82
12907;DHT22;6521;50.498;8.474;2023-08-12T08:47:04;21.92;87.35
12907;DHT22;6521;50.498;8.474;2023-08-12T08:49:36;21.89;87.64
12907;DHT22;6521;50.498;8.474;2023-08-12T08:52:07;21.95;87.51
12907;DHT22;6521;50.498;8.474;2023-08-12T08:54:39;22.08;87.92
12907;DHT22;6521;50.498;8.474;2023-08-12T08:57:11;22.03;87.07
12907;DHT22;6521;50.498;8.474;2023-08-12T08:59:45;22.08;87.17
12907;DHT22;6521;50.498;8.474;2023-08-12T09:02:17;22.29;87.06
12907;DHT22;6521;50.498;8.474;2023-08-12T09:04:50;22.36;86.76
12907;DHT22;6521;50.498;8.474;2023-08-12T09:07:21;22.40;86.95
12907;DHT22;6521;50.498;8.474;2023-08-12T09:09:54;22.56;87.09
12907;DHT22;6521;50.498;8.474;2023-08-12T09:12:27;22.67;85.94
12907;DHT22;6521;50.498;8.474;2023-08-12T09:14:58;22.59;84.86
12907;DHT22;6521;50.498;8.474;2023-08-12T09:17:29;22.51;85.30
12907;DHT22;6521;50.498;8.474;2023-08-12T09:20:00;22.50;85.55
12907;DHT22;6521;50.498;8.474;2023-08-12T09:22:43;22.56;85.72
12907;DHT22;6521;50.498;8.474;2023-08-12T09:25:14;22.64;84.57
12907;DHT22;6521;50.498;8.474;2023-08-12T09:27:45;22.59;85.01
12907;DHT22;6521;50.498;8.474;2023-08-12T09:30:16;22.65;85.47
12907;DHT22;6521;50.498;8.474;2023-08-12T09:33:00;22.78;85.14
12907;DHT22;6521;50.498;8.474;2023-08-12T09:38:11;22.97;84.36
12907;DHT22;6521;50.498;8.474;2023-08-12T09:40:42;23.05;83.53
12907;DHT22;6521;50.498;8.474;2023-08-12T09:43:14;23.07;82.75
12907;DHT22;6521;50.498;8.474;2023-08-12T09:45:47;22.98;81.04
12907;DHT22;6521;50.498;8.474;2023-08-12T09:48:18;22.84;81.30
12907;DHT22;6521;50.498;8.474;2023-08-12T09:50:49;22.78;82.22
12907;DHT22;6521;50.498;8.474;2023-08-12T09:53:22;22.86;82.67
12907;DHT22;6521;50.498;8.474;2023-08-12T09:55:54;22.95;82.38
12907;DHT22;6521;50.498;8.474;2023-08-12T09:58:26;23.15;82.14
12907;DHT22;6521;50.498;8.474;2023-08-12T10:01:00;23.31;81.19
12907;DHT22;6521;50.498;8.474;2023-08-12T10:03:33;23.28;80.79
12907;DHT22;6521;50.498;8.474;2023-08-12T10:06:05;23.23;81.37
12907;DHT22;6521;50.498;8.474;2023-08-12T10:08:35;23.19;81.63
12907;DHT22;6521;50.498;8.474;2023-08-12T10:11:07;23.28;83.15
12907;DHT22;6521;50.498;8.474;2023-08-12T10:13:43;23.46;81.80
12907;DHT22;6521;50.498;8.474;2023-08-12T10:16:14;23.50;81.68
12907;DHT22;6521;50.498;8.474;2023-08-12T10:18:46;23.46;81.28
12907;DHT22;6521;50.498;8.474;2023-08-12T10:21:20;23.33;81.82
12907;DHT22;6521;50.498;8.474;2023-08-12T10:23:53;23.28;81.13
12907;DHT22;6521;50.498;8.474;2023-08-12T10:26:24;23.25;81.19
12907;DHT22;6521;50.498;8.474;2023-08-12T10:28:55;23.22;81.01
12907;DHT22;6521;50.498;8.474;2023-08-12T10:31:29;23.12;80.27
12907;DHT22;6521;50.498;8.474;2023-08-12T10:34:00;23.01;80.66
12907;DHT22;6521;50.498;8.474;2023-08-12T10:36:31;22.90;81.32
12907;DHT22;6521;50.498;8.474;2023-08-12T10:39:08;22.78;81.37
12907;DHT22;6521;50.498;8.474;2023-08-12T10:41:50;22.67;82.07
12907;DHT22;6521;50.498;8.474;2023-08-12T10:44:23;22.56;82.26
12907;DHT22;6521;50.498;8.474;2023-08-12T10:46:58;22.47;83.09
12907;DHT22;6521;50.498;8.474;2023-08-12T10:49:38;22.42;83.02
12907;DHT22;6521;50.498;8.474;2023-08-12T10:52:31;22.32;83.34
12907;DHT22;6521;50.498;8.474;2023-08-12T10:57:51;22.22;84.32
12907;DHT22;6521;50.498;8.474;2023-08-12T11:00:24;22.13;84.69
12907;DHT22;6521;50.498;8.474;2023-08-12T11:02:56;22.02;85.12
12907;DHT22;6521;50.498;8.474;2023-08-12T11:05:37;21.93;85.57
12907;DHT22;6521;50.498;8.474;2023-08-12T11:08:08;21.88;85.69
12907;DHT22;6521;50.498;8.474;2023-08-12T11:10:39;21.85;85.90
12907;DHT22;6521;50.498;8.474;2023-08-12T11:13:10;21.84;86.07
12907;DHT22;6521;50.498;8.474;2023-08-12T11:15:43;21.86;86.09
12907;DHT22;6521;50.498;8.474;2023-08-12T11:18:18;21.91;85.99
12907;DHT22;6521;50.498;8.474;2023-08-12T11:20:49;22.02;86.12
12907;DHT22;6521;50.498;8.474;2023-08-12T11:23:20;22.12;85.67
12907;DHT22;6521;50.498;8.474;2023-08-12T11:25:52;22.26;85.47
12907;DHT22;6521;50.498;8.474;2023-08-12T11:28:25;22.59;85.33
12907;DHT22;6521;50.498;8.474;2023-08-12T11:30:56;23.15;84.61
12907;DHT22;6521;50.498;8.474;2023-08-12T11:33:27;23.81;82.49
12907;DHT22;6521;50.498;8.474;2023-08-12T11:35:58;23.92;79.58
12907;DHT22;6521;50.498;8.474;2023-08-12T11:38:29;23.98;78.64
12907;DHT22;6521;50.498;8.474;2023-08-12T11:41:01;24.04;78.58
12907;DHT22;6521;50.498;8.474;2023-08-12T11:43:33;24.08;78.14
12907;DHT22;6521;50.498;8.474;2023-08-12T11:46:06;24.14;78.55
12907;DHT22;6521;50.498;8.474;2023-08-12T11:48:37;24.13;79.18
12907;DHT22;6521;50.498;8.474;2023-08-12T11:51:10;24.55;78.73
12907;DHT22;6521;50.498;8.474;2023-08-12T11:53:41;24.78;77.28
12907;DHT22;6521;50.498;8.474;2023-08-12T11:56:11;24.62;75.94
12907;DHT22;6521;50.498;8.474;2023-08-12T11:58:42;24.41;76.55
12907;DHT22;6521;50.498;8.474;2023-08-12T12:01:15;24.28;77.44
12907;DHT22;6521;50.498;8.474;2023-08-12T12:03:50;24.38;77.49
12907;DHT22;6521;50.498;8.474;2023-08-12T12:06:37;24.45;77.77
12907;DHT22;6521;50.498;8.474;2023-08-12T12:09:10;24.44;77.14
12907;DHT22;6521;50.498;8.474;2023-08-12T12:11:41;24.41;76.41
12907;DHT22;6521;50.498;8.474;2023-08-12T12:14:12;24.47;75.83
12907;DHT22;6521;50.498;8.474;2023-08-12T12:16:44;24.54;75.75
12907;DHT22;6521;50.498;8.474;2023-08-12T12:19:20;24.54;75.58
12907;DHT22;6521;50.498;8.474;2023-08-12T12:21:52;24.38;75.41
12907;DHT22;6521;50.498;8.474;2023-08-12T12:24:29;24.22;77.25
12907;DHT22;6521;50.498;8.474;2023-08-12T12:27:00;24.21;77.58
12907;DHT22;6521;50.498;8.474;2023-08-12T12:29:31;24.17;77.81
12907;DHT22;6521;50.498;8.474;2023-08-12T12:32:03;24.00;78.37
12907;DHT22;6521;50.498;8.474;2023-08-12T12:34:34;23.93;78.76
12907;DHT22;6521;50.498;8.474;2023-08-12T12:37:06;23.92;78.14
12907;DHT22;6521;50.498;8.474;2023-08-12T12:39:39;23.94;78.73
12907;DHT22;6521;50.498;8.474;2023-08-12T12:42:10;24.13;78.79
12907;DHT22;6521;50.498;8.474;2023-08-12T12:44:41;24.49;76.87
12907;DHT22;6521;50.498;8.474;2023-08-12T12:47:12;24.71;74.65
12907;DHT22;6521;50.498;8.474;2023-08-12T12:49:42;24.96;73.48
12907;DHT22;6521;50.498;8.474;2023-08-12T12:52:13;25.36;71.58
12907;DHT22;6521;50.498;8.474;2023-08-12T12:54:44;25.91;69.60
12907;DHT22;6521;50.498;8.474;2023-08-12T12:57:17;26.29;68.77
12907;DHT22;6521;50.498;8.474;2023-08-12T12:59:48;26.31;65.18
12907;DHT22;6521;50.498;8.474;2023-08-12T13:02:18;26.03;66.58
12907;DHT22;6521;50.498;8.474;2023-08-12T13:04:49;26.35;66.74
12907;DHT22;6521;50.498;8.474;2023-08-12T13:07:20;26.77;65.85
12907;DHT22;6521;50.498;8.474;2023-08-12T13:09:51;27.07;63.51
12907;DHT22;6521;50.498;8.474;2023-08-12T13:12:21;27.15;63.46
12907;DHT22;6521;50.498;8.474;2023-08-12T13:14:52;27.27;61.41
12907;DHT22;6521;50.498;8.474;2023-08-12T13:17:22;27.21;62.53
12907;DHT22;6521;50.498;8.474;2023-08-12T13:19:55;27.25;60.15
12907;DHT22;6521;50.498;8.474;2023-08-12T13:22:26;27.00;62.89
12907;DHT22;6521;50.498;8.474;2023-08-12T13:24:56;26.98;61.39
12907;DHT22;6521;50.498;8.474;2023-08-12T13:27:27;27.04;63.47
12907;DHT22;6521;50.498;8.474;2023-08-12T13:29:58;27.18;62.87
12907;DHT22;6521;50.498;8.474;2023-08-12T13:32:29;27.48;62.80
12907;DHT22;6521;50.498;8.474;2023-08-12T13:34:59;27.52;61.49
12907;DHT22;6521;50.498;8.474;2023-08-12T13:37:32;27.46;61.35
12907;DHT22;6521;50.498;8.474;2023-08-12T13:40:03;27.31;60.94
12907;DHT22;6521;50.498;8.474;2023-08-12T13:42:34;27.46;61.53
12907;DHT22;6521;50.498;8.474;2023-08-12T13:45:05;27.87;61.82
12907;DHT22;6521;50.498;8.474;2023-08-12T13:47:36;28.25;58.93
12907;DHT22;6521;50.498;8.474;2023-08-12T13:50:07;28.06;58.78
12907;DHT22;6521;50.498;8.474;2023-08-12T13:52:37;27.71;58.98
12907;DHT22;6521;50.498;8.474;2023-08-12T13:55:08;27.85;59.77
12907;DHT22;6521;50.498;8.474;2023-08-12T13:57:39;27.79;61.14
12907;DHT22;6521;50.498;8.474;2023-08-12T14:00:10;27.96;59.86
12907;DHT22;6521;50.498;8.474;2023-08-12T14:02:43;27.99;60.78
12907;DHT22;6521;50.498;8.474;2023-08-12T14:05:14;27.93;57.92
12907;DHT22;6521;50.498;8.474;2023-08-12T14:07:47;27.93;58.83
12907;DHT22;6521;50.498;8.474;2023-08-12T14:10:18;27.93;59.28
12907;DHT22;6521;50.498;8.474;2023-08-12T14:12:48;27.86;59.76
12907;DHT22;6521;50.498;8.474;2023-08-12T14:15:19;28.00;59.50
12907;DHT22;6521;50.498;8.474;2023-08-12T14:17:52;27.80;59.51
12907;DHT22;6521;50.498;8.474;2023-08-12T14:20:23;27.32;59.61
12907;DHT22;6521;50.498;8.474;2023-08-12T14:22:53;26.84;60.61
12907;DHT22;6521;50.498;8.474;2023-08-12T14:25:24;26.42;62.46
12907;DHT22;6521;50.498;8.474;2023-08-12T14:27:55;26.39;63.29
12907;DHT22;6521;50.498;8.474;2023-08-12T14:30:25;26.49;63.60
12907;DHT22;6521;50.498;8.474;2023-08-12T14:32:56;26.83;63.03
12907;DHT22;6521;50.498;8.474;2023-08-12T14:35:27;26.95;61.87
12907;DHT22;6521;50.498;8.474;2023-08-12T14:37:58;26.77;62.82
12907;DHT22;6521;50.498;8.474;2023-08-12T14:40:29;26.70;61.61
12907;DHT22;6521;50.498;8.474;2023-08-12T14:43:00;26.76;62.78
12907;DHT22;6521;50.498;8.474;2023-08-12T14:45:30;26.94;62.45
12907;DHT22;6521;50.498;8.474;2023-08-12T14:48:01;27.32;60.78
12907;DHT22;6521;50.498;8.474;2023-08-12T14:50:33;27.73;60.68
12907;DHT22;6521;50.498;8.474;2023-08-12T14:53:04;27.93;59.32
12907;DHT22;6521;50.498;8.474;2023-08-12T14:55:34;27.96;58.33
12907;DHT22;6521;50.498;8.474;2023-08-12T14:58:05;27.52;60.03
12907;DHT22;6521;50.498;8.474;2023-08-12T15:00:35;27.12;61.54
12907;DHT22;6521;50.498;8.474;2023-08-12T15:03:06;26.90;62.71
12907;DHT22;6521;50.498;8.474;2023-08-12T15:05:40;26.56;63.05
12907;DHT22;6521;50.498;8.474;2023-08-12T15:08:13;26.43;65.26
12907;DHT22;6521;50.498;8.474;2023-08-12T15:10:43;26.21;66.78
12907;DHT22;6521;50.498;8.474;2023-08-12T15:13:14;26.03;67.78
12907;DHT22;6521;50.498;8.474;2023-08-12T15:15:48;25.78;68.84
12907;DHT22;6521;50.498;8.474;2023-08-12T15:18:20;25.64;69.50
12907;DHT22;6521;50.498;8.474;2023-08-12T15:20:51;25.45;69.40
12907;DHT22;6521;50.498;8.474;2023-08-12T15:23:22;25.36;69.79
12907;DHT22;6521;50.498;8.474;2023-08-12T15:25:55;25.23;70.07
12907;DHT22;6521;50.498;8.474;2023-08-12T15:28:25;25.17;69.91
12907;DHT22;6521;50.498;8.474;2023-08-12T15:30:56;25.05;69.75
12907;DHT22;6521;50.498;8.474;2023-08-12T15:33:28;24.82;70.92
12907;DHT22;6521;50.498;8.474;2023-08-12T15:36:00;24.73;71.98
12907;DHT22;6521;50.498;8.474;2023-08-12T15:38:30;24.68;71.91
12907;DHT22;6521;50.498;8.474;2023-08-12T15:41:12;24.49;71.47
12907;DHT22;6521;50.498;8.474;2023-08-12T15:43:44;24.47;71.27
12907;DHT22;6521;50.498;8.474;2023-08-12T15:46:15;24.32;72.13
12907;DHT22;6521;50.498;8.474;2023-08-12T15:48:46;24.24;72.55
12907;DHT22;6521;50.498;8.474;2023-08-12T15:51:17;24.17;72.95
12907;DHT22;6521;50.498;8.474;2023-08-12T15:53:48;24.14;72.85
12907;DHT22;6521;50.498;8.474;2023-08-12T15:56:18;24.06;72.69
12907;DHT22;6521;50.498;8.474;2023-08-12T15:58:49;24.21;73.15
12907;DHT22;6521;50.498;8.474;2023-08-12T16:01:19;24.59;71.13
12907;DHT22;6521;50.498;8.474;2023-08-12T16:03:50;24.89;70.92
12907;DHT22;6521;50.498;8.474;2023-08-12T16:06:21;25.07;69.66
12907;DHT22;6521;50.498;8.474;2023-08-12T16:08:53;25.10;69.11
12907;DHT22;6521;50.498;8.474;2023-08-12T16:11:24;25.17;69.23
12907;DHT22;6521;50.498;8.474;2023-08-12T16:13:55;25.37;69.27
12907;DHT22;6521;50.498;8.474;2023-08-12T16:16:26;25.58;68.07
12907;DHT22;6521;50.498;8.474;2023-08-12T16:18:56;25.55;67.12
12907;DHT22;6521;50.498;8.474;2023-08-12T16:21:27;25.55;67.32
12907;DHT22;6521;50.498;8.474;2023-08-12T16:23:59;25.57;67.35